Time;durP1;ratioP1;P1;durP2;ratioP2;P2;SDS_P1;SDS_P2;PMS_P1;PMS_P2;Temp;Humidity;BMP_temperature;BMP_pressure;BME280_temperature;BME280_humidity;BME280_pressure;Samples;Min_cycle;Max_cycle;Signal;HPM_P1;HPM_P2
2023/11/22 00:02:09;;;;;;;4.73;2.77;;;3.40;99.90;;;;;;5041031;28;20493;-61
2023/11/22 00:04:37;;;;;;;3.60;3.17;;;3.40;99.90;;;;;;5038754;28;20474;-61
2023/11/22 00:07:06;;;;;;;4.07;3.20;;;3.40;99.90;;;;;;5033879;28;20555;-61
2023/11/22 00:09:35;;;;;;;3.67;3.23;;;3.30;99.90;;;;;;5035770;28;20960;-61
2023/11/22 00:12:03;;;;;;;4.30;3.33;;;3.30;99.90;;;;;;5035967;28;20569;-62
2023/11/22 00:14:33;;;;;;;3.70;3.37;;;3.20;99.90;;;;;;5038537;28;20927;-62
2023/11/22 00:17:02;;;;;;;3.37;3.07;;;3.20;99.90;;;;;;5038926;28;20525;-61
2023/11/22 00:19:30;;;;;;;4.10;3.17;;;3.20;99.90;;;;;;5039519;28;20494;-61
2023/11/22 00:21:58;;;;;;;3.50;3.20;;;3.20;99.90;;;;;;5038756;28;20528;-61
2023/11/22 00:24:26;;;;;;;3.60;3.10;;;3.10;99.90;;;;;;5037015;28;20587;-61
2023/11/22 00:26:54;;;;;;;3.90;3.50;;;3.10;99.90;;;;;;5036852;28;20949;-61
2023/11/22 00:29:23;;;;;;;4.07;2.80;;;3.10;99.90;;;;;;5027583;28;20955;-61
2023/11/22 00:31:52;;;;;;;3.43;3.13;;;3.00;99.90;;;;;;5038782;28;20562;-61
2023/11/22 00:34:20;;;;;;;3.47;3.17;;;3.00;99.90;;;;;;5038944;28;20541;-61
2023/11/22 00:36:48;;;;;;;4.20;3.60;;;3.00;99.90;;;;;;5036992;28;20474;-61
2023/11/22 00:39:16;;;;;;;3.37;3.07;;;3.00;99.90;;;;;;5036130;28;20510;-61
2023/11/22 00:41:45;;;;;;;3.87;3.30;;;2.90;99.90;;;;;;5045380;28;20545;-61
2023/11/22 00:44:13;;;;;;;3.47;2.97;;;2.90;99.90;;;;;;5047551;28;21035;-62
2023/11/22 00:46:42;;;;;;;3.10;2.80;;;2.90;99.90;;;;;;5047330;28;20477;-61
2023/11/22 00:49:11;;;;;;;3.47;3.00;;;2.90;99.90;;;;;;5045401;28;20525;-62
2023/11/22 00:51:39;;;;;;;3.43;2.90;;;2.80;99.90;;;;;;5038369;28;20505;-61
2023/11/22 00:54:07;;;;;;;4.00;3.20;;;2.80;99.90;;;;;;5038189;28;21078;-61
2023/11/22 00:56:35;;;;;;;3.60;3.20;;;2.70;99.90;;;;;;5036823;28;20473;-61
2023/11/22 00:59:04;;;;;;;3.17;2.80;;;2.60;99.90;;;;;;5035878;28;20577;-61
2023/11/22 01:01:32;;;;;;;3.07;2.77;;;2.60;99.90;;;;;;5038653;28;20462;-61
2023/11/22 01:04:00;;;;;;;3.13;2.83;;;2.60;99.90;;;;;;5035898;28;20549;-61
2023/11/22 01:06:31;;;;;;;4.87;3.80;;;2.50;99.90;;;;;;5038566;28;20902;-61
2023/11/22 01:08:59;;;;;;;4.37;3.00;;;2.50;99.90;;;;;;5038999;28;20495;-61
2023/11/22 01:11:27;;;;;;;4.60;3.53;;;2.40;99.90;;;;;;5035704;28;20524;-61
2023/11/22 01:13:56;;;;;;;4.10;3.00;;;2.40;99.90;;;;;;5037879;28;20495;-61
2023/11/22 01:16:24;;;;;;;3.80;3.27;;;2.40;99.90;;;;;;5035215;28;20479;-61
2023/11/22 01:18:53;;;;;;;5.97;3.60;;;2.30;99.90;;;;;;5038258;28;20470;-61
2023/11/22 01:21:21;;;;;;;3.70;3.27;;;2.30;99.90;;;;;;5037565;28;20475;-61
2023/11/22 01:23:50;;;;;;;3.70;3.30;;;2.30;99.90;;;;;;5034245;28;20518;-61
2023/11/22 01:26:18;;;;;;;3.90;3.13;;;2.30;99.90;;;;;;5037898;28;20562;-61
2023/11/22 01:28:46;;;;;;;4.00;3.57;;;2.30;99.90;;;;;;5037208;28;20490;-61
2023/11/22 01:31:15;;;;;;;3.77;3.10;;;2.20;99.90;;;;;;5032171;28;20573;-61
2023/11/22 01:33:43;;;;;;;4.00;3.57;;;2.20;99.90;;;;;;5037610;28;20501;-61
2023/11/22 01:36:11;;;;;;;3.93;3.53;;;2.20;99.90;;;;;;5036641;28;20466;-61
2023/11/22 01:38:39;;;;;;;4.07;3.67;;;2.20;99.90;;;;;;5036030;28;21542;-61
2023/11/22 01:41:09;;;;;;;3.67;3.03;;;2.20;99.90;;;;;;5034170;28;20549;-61
2023/11/22 01:43:39;;;;;;;5.37;4.10;;;2.20;99.90;;;;;;5037342;28;20477;-61
2023/11/22 01:46:08;;;;;;;3.77;3.33;;;2.20;99.90;;;;;;5037913;28;20894;-61
2023/11/22 01:48:37;;;;;;;4.63;3.50;;;2.10;99.90;;;;;;5037886;28;20478;-61
2023/11/22 01:51:06;;;;;;;3.93;3.23;;;2.10;99.90;;;;;;5035870;28;20549;-60
2023/11/22 01:53:35;;;;;;;3.70;3.30;;;2.10;99.90;;;;;;5037060;28;20492;-61
2023/11/22 01:56:04;;;;;;;4.13;3.60;;;2.10;99.90;;;;;;5037761;28;20971;-61
2023/11/22 01:58:34;;;;;;;3.73;3.43;;;2.00;99.90;;;;;;5036458;28;20900;-61
2023/11/22 02:01:04;;;;;;;3.40;3.10;;;2.00;99.90;;;;;;5032323;28;20573;-61
2023/11/22 02:03:32;;;;;;;3.87;3.47;;;2.00;99.90;;;;;;5033417;28;20524;-61
2023/11/22 02:06:00;;;;;;;4.43;3.70;;;2.00;99.90;;;;;;5036855;28;20471;-62
2023/11/22 02:08:29;;;;;;;4.47;3.77;;;2.00;99.90;;;;;;5035040;28;20565;-61
2023/11/22 02:11:02;;;;;;;4.30;3.73;;;1.90;99.90;;;;;;5031744;28;20474;-62
2023/11/22 02:13:30;;;;;;;3.97;3.57;;;1.90;99.90;;;;;;5033048;28;20587;-61
2023/11/22 02:16:01;;;;;;;5.27;4.10;;;1.90;99.90;;;;;;5032513;28;20466;-61
2023/11/22 02:18:30;;;;;;;4.17;3.60;;;1.90;99.90;;;;;;5031313;28;20879;-60
2023/11/22 02:20:59;;;;;;;5.23;3.77;;;1.90;99.90;;;;;;5033114;28;20544;-61
2023/11/22 02:23:28;;;;;;;4.43;3.97;;;1.90;99.90;;;;;;5032281;28;21039;-61
2023/11/22 02:25:56;;;;;;;3.83;3.37;;;1.90;99.90;;;;;;5035824;28;20474;-61
2023/11/22 02:28:25;;;;;;;4.33;3.80;;;1.80;99.90;;;;;;5033937;28;20479;-61
2023/11/22 02:30:54;;;;;;;4.50;3.83;;;1.80;99.90;;;;;;5032346;28;20559;-61
2023/11/22 02:33:22;;;;;;;3.93;3.37;;;1.80;99.90;;;;;;5030848;28;20513;-60
2023/11/22 02:35:50;;;;;;;5.87;3.10;;;1.80;99.90;;;;;;5034417;28;20989;-61
2023/11/22 02:38:18;;;;;;;4.50;4.00;;;1.80;99.90;;;;;;5032565;28;21064;-61
2023/11/22 02:40:49;;;;;;;4.50;3.67;;;1.70;99.90;;;;;;5037883;28;20490;-61
2023/11/22 02:43:17;;;;;;;4.63;4.10;;;1.70;99.90;;;;;;5037418;28;20578;-60
2023/11/22 02:45:45;;;;;;;3.93;3.53;;;1.70;99.90;;;;;;5035466;28;20496;-61
2023/11/22 02:48:13;;;;;;;4.40;4.10;;;1.70;99.90;;;;;;5039420;28;20506;-61
2023/11/22 02:50:43;;;;;;;4.20;3.53;;;1.60;99.90;;;;;;5041106;28;20469;-61
2023/11/22 02:53:12;;;;;;;4.07;3.67;;;1.60;99.90;;;;;;5037998;28;20495;-61
2023/11/22 02:55:40;;;;;;;4.17;3.37;;;1.60;99.90;;;;;;5040160;28;20556;-61
2023/11/22 02:58:12;;;;;;;5.40;4.03;;;1.60;99.90;;;;;;5037248;28;20486;-61
2023/11/22 03:00:41;;;;;;;4.13;3.40;;;1.60;99.90;;;;;;5041913;28;20516;-60
2023/11/22 03:03:10;;;;;;;3.73;3.30;;;1.50;99.90;;;;;;5038709;28;20486;-61
2023/11/22 03:05:38;;;;;;;4.20;3.80;;;1.50;99.90;;;;;;5034750;28;20697;-61
2023/11/22 03:08:07;;;;;;;4.30;2.97;;;1.50;99.90;;;;;;5039388;28;20466;-61
2023/11/22 03:10:35;;;;;;;4.50;3.90;;;1.50;99.90;;;;;;5037236;28;20459;-61
2023/11/22 03:13:04;;;;;;;5.63;3.73;;;1.50;99.90;;;;;;5040073;28;20489;-61
2023/11/22 03:15:33;;;;;;;4.07;3.60;;;1.50;99.90;;;;;;5037312;28;20491;-61
2023/11/22 03:18:03;;;;;;;5.07;3.77;;;1.40;99.90;;;;;;5039984;28;20918;-61
2023/11/22 03:20:32;;;;;;;3.53;3.23;;;1.40;99.90;;;;;;5042054;28;20523;-61
2023/11/22 03:23:00;;;;;;;5.57;3.90;;;1.40;99.90;;;;;;5037628;28;20844;-61
2023/11/22 03:25:28;;;;;;;4.77;3.80;;;1.40;99.90;;;;;;5035905;28;20495;-61
2023/11/22 03:27:56;;;;;;;4.27;3.87;;;1.40;99.90;;;;;;5037690;28;20497;-60
2023/11/22 03:30:24;;;;;;;5.67;3.67;;;1.40;99.90;;;;;;5040355;28;20628;-61
2023/11/22 03:32:54;;;;;;;4.23;3.83;;;1.40;99.90;;;;;;5036521;28;20573;-61
2023/11/22 03:35:22;;;;;;;5.30;4.20;;;1.40;99.90;;;;;;5039016;28;20512;-60
2023/11/22 03:37:50;;;;;;;4.27;3.30;;;1.40;99.90;;;;;;5038982;28;20463;-61
2023/11/22 03:40:18;;;;;;;4.80;3.70;;;1.40;99.90;;;;;;5035904;28;20581;-61
2023/11/22 03:42:47;;;;;;;4.53;3.70;;;1.40;99.90;;;;;;5038396;28;20490;-61
2023/11/22 03:45:16;;;;;;;5.50;3.60;;;1.40;99.90;;;;;;5038596;28;20581;-61
2023/11/22 03:47:44;;;;;;;4.10;3.40;;;1.30;99.90;;;;;;5038121;28;20485;-61
2023/11/22 03:50:14;;;;;;;5.43;3.63;;;1.30;99.90;;;;;;5040762;28;20482;-61
2023/11/22 03:52:42;;;;;;;3.70;3.30;;;1.30;99.90;;;;;;5036692;28;20882;-61
2023/11/22 03:55:10;;;;;;;3.57;3.27;;;1.30;99.90;;;;;;5032358;28;20515;-61
2023/11/22 03:57:38;;;;;;;5.37;3.80;;;1.30;99.90;;;;;;5037007;28;21023;-61
2023/11/22 04:00:09;;;;;;;4.87;4.27;;;1.30;99.90;;;;;;5039284;28;20467;-60
2023/11/22 04:02:38;;;;;;;4.77;4.10;;;1.30;99.90;;;;;;5038535;28;20573;-60
2023/11/22 04:05:07;;;;;;;3.83;3.33;;;1.30;99.90;;;;;;5038070;28;20485;-61
2023/11/22 04:07:39;;;;;;;3.97;3.03;;;1.30;99.90;;;;;;5040791;28;20948;-61
2023/11/22 04:10:07;;;;;;;4.10;3.70;;;1.30;99.90;;;;;;5034134;28;20539;-61
2023/11/22 04:12:35;;;;;;;4.30;3.90;;;1.20;99.90;;;;;;5032139;28;20948;-61
2023/11/22 04:15:08;;;;;;;4.20;3.80;;;1.20;99.90;;;;;;5032927;28;20487;-61
2023/11/22 04:17:37;;;;;;;4.37;3.90;;;1.20;99.90;;;;;;5039142;28;20498;-61
2023/11/22 04:20:09;;;;;;;4.43;3.87;;;1.20;99.90;;;;;;5035212;28;20565;-61
2023/11/22 04:22:39;;;;;;;3.70;3.37;;;1.20;99.90;;;;;;5035618;28;20545;-60
2023/11/22 04:25:09;;;;;;;4.60;3.40;;;1.10;99.90;;;;;;5037899;28;20557;-61
2023/11/22 04:27:37;;;;;;;5.83;4.00;;;1.10;99.90;;;;;;5036396;28;20562;-61
2023/11/22 04:30:08;;;;;;;4.53;4.13;;;1.10;99.90;;;;;;5036901;28;20557;-61
2023/11/22 04:32:37;;;;;;;4.73;3.80;;;1.10;99.90;;;;;;5037096;28;20497;-61
2023/11/22 04:35:06;;;;;;;4.30;3.73;;;1.10;99.90;;;;;;5033876;28;20475;-61
2023/11/22 04:37:34;;;;;;;4.77;3.70;;;1.10;99.90;;;;;;5038015;28;20544;-61
2023/11/22 04:40:07;;;;;;;4.30;3.47;;;1.10;99.90;;;;;;5036181;28;20473;-61
2023/11/22 04:42:36;;;;;;;4.33;3.93;;;1.10;99.90;;;;;;5036338;28;20494;-61
2023/11/22 04:45:05;;;;;;;5.90;4.00;;;1.10;99.90;;;;;;5034917;28;20511;-61
2023/11/22 04:47:33;;;;;;;5.77;4.73;;;1.10;99.90;;;;;;5037796;28;20485;-61
2023/11/22 04:50:02;;;;;;;4.20;3.80;;;1.00;99.90;;;;;;5033420;28;20492;-60
2023/11/22 04:52:30;;;;;;;5.00;3.90;;;1.00;99.90;;;;;;5038144;28;20467;-61
2023/11/22 04:55:00;;;;;;;5.00;4.00;;;1.00;99.90;;;;;;5031766;28;21115;-61
2023/11/22 04:57:29;;;;;;;3.80;3.40;;;1.00;99.90;;;;;;5036076;28;20471;-61
2023/11/22 04:59:57;;;;;;;4.57;3.90;;;1.00;99.90;;;;;;5033943;28;20477;-61
2023/11/22 05:02:26;;;;;;;4.50;4.03;;;1.00;99.90;;;;;;5035991;28;21071;-61
2023/11/22 05:04:54;;;;;;;3.63;3.23;;;1.00;99.90;;;;;;5034226;28;20489;-61
2023/11/22 05:07:23;;;;;;;3.67;3.37;;;1.00;99.90;;;;;;5034474;28;20483;-61
2023/11/22 05:09:51;;;;;;;4.97;4.40;;;1.00;99.90;;;;;;5035150;28;20498;-61
2023/11/22 05:12:19;;;;;;;4.07;3.60;;;0.90;99.90;;;;;;5035396;28;20554;-61
2023/11/22 05:14:49;;;;;;;5.40;3.60;;;1.00;99.90;;;;;;5037897;28;20571;-61
2023/11/22 05:17:17;;;;;;;4.73;3.80;;;0.90;99.90;;;;;;5037683;28;20505;-61
2023/11/22 05:19:45;;;;;;;4.73;4.10;;;0.90;99.90;;;;;;5034899;28;21062;-61
2023/11/22 05:22:13;;;;;;;4.37;3.73;;;0.90;99.90;;;;;;5033324;28;20501;-61
2023/11/22 05:24:41;;;;;;;4.80;4.00;;;0.90;99.90;;;;;;5038087;28;20482;-61
2023/11/22 05:27:09;;;;;;;5.27;4.30;;;0.90;99.90;;;;;;5035555;28;20477;-61
2023/11/22 05:29:38;;;;;;;4.30;3.80;;;0.90;99.90;;;;;;5039314;28;20503;-61
2023/11/22 05:32:18;;;;;;;4.40;4.00;;;0.80;99.90;;;;;;5034241;28;20558;-61
2023/11/22 05:34:46;;;;;;;5.20;3.90;;;0.80;99.90;;;;;;5031315;28;20539;-60
2023/11/22 05:37:14;;;;;;;4.47;4.07;;;0.80;99.90;;;;;;5036948;28;20528;-60
2023/11/22 05:39:42;;;;;;;4.30;3.90;;;0.80;99.90;;;;;;5034386;28;20872;-61
2023/11/22 05:42:11;;;;;;;4.13;3.73;;;0.80;99.90;;;;;;5034318;28;20580;-61
2023/11/22 05:44:39;;;;;;;4.83;4.30;;;0.80;99.90;;;;;;5029186;28;21023;-61
2023/11/22 05:47:07;;;;;;;6.30;4.60;;;0.80;99.90;;;;;;5032449;28;20466;-61
2023/11/22 05:49:37;;;;;;;4.33;3.93;;;0.80;99.90;;;;;;5033532;28;20589;-61
2023/11/22 05:52:05;;;;;;;7.10;4.57;;;0.80;99.90;;;;;;5021016;28;20499;-60
2023/11/22 05:54:33;;;;;;;4.60;4.10;;;0.80;99.90;;;;;;5031907;28;20570;-61
2023/11/22 05:57:01;;;;;;;4.97;4.33;;;0.70;99.90;;;;;;5035472;28;20908;-61
2023/11/22 05:59:29;;;;;;;5.37;4.10;;;0.70;99.90;;;;;;5034568;28;20550;-61
2023/11/22 06:01:57;;;;;;;5.00;4.17;;;0.70;99.90;;;;;;5036320;28;20483;-61
2023/11/22 06:04:25;;;;;;;5.47;4.40;;;0.70;99.90;;;;;;5032837;28;20589;-61
2023/11/22 06:06:55;;;;;;;4.77;4.30;;;0.70;99.90;;;;;;5031014;28;20950;-61
2023/11/22 06:09:23;;;;;;;5.73;4.70;;;0.70;99.90;;;;;;5036292;28;20471;-60
2023/11/22 06:11:51;;;;;;;4.70;4.30;;;0.70;99.90;;;;;;5027178;28;20471;-61
2023/11/22 06:14:20;;;;;;;8.30;5.37;;;0.70;99.90;;;;;;5032866;28;21074;-61
2023/11/22 06:16:48;;;;;;;8.20;5.30;;;0.80;99.90;;;;;;5027727;28;20487;-61
2023/11/22 06:19:16;;;;;;;6.13;5.07;;;0.70;99.90;;;;;;5035417;28;20957;-61
2023/11/22 06:21:43;;;;;;;6.57;4.90;;;0.80;99.90;;;;;;5030340;28;20489;-61
2023/11/22 06:24:15;;;;;;;5.40;4.90;;;0.80;99.90;;;;;;5031410;28;20517;-61
2023/11/22 06:26:45;;;;;;;7.27;5.10;;;0.80;99.90;;;;;;5026339;28;20598;-61
2023/11/22 06:29:14;;;;;;;5.27;4.73;;;0.80;99.90;;;;;;5028174;28;20984;-61
2023/11/22 06:31:43;;;;;;;5.57;5.07;;;0.80;99.90;;;;;;5031348;28;20502;-60
2023/11/22 06:34:11;;;;;;;5.70;5.13;;;0.80;99.90;;;;;;5027083;28;20685;-61
2023/11/22 06:36:39;;;;;;;8.03;5.60;;;0.80;99.90;;;;;;5024338;28;21379;-60
2023/11/22 06:39:09;;;;;;;6.10;5.13;;;0.80;99.90;;;;;;5031642;28;20462;-60
2023/11/22 06:41:38;;;;;;;6.60;5.27;;;0.80;99.90;;;;;;5024328;28;20499;-61
2023/11/22 06:44:06;;;;;;;6.80;4.97;;;0.80;99.90;;;;;;5007686;28;20498;-61
2023/11/22 06:46:34;;;;;;;6.23;5.70;;;0.80;99.90;;;;;;5023377;28;20467;-61
2023/11/22 06:49:02;;;;;;;5.17;4.63;;;0.80;99.90;;;;;;5029641;28;20503;-60
2023/11/22 06:51:31;;;;;;;7.20;5.10;;;0.80;99.90;;;;;;5031305;28;20466;-61
2023/11/22 06:53:59;;;;;;;6.30;4.63;;;0.80;99.90;;;;;;5032570;28;20497;-60
2023/11/22 06:56:29;;;;;;;6.70;4.77;;;0.80;99.90;;;;;;5029663;28;20467;-61
2023/11/22 06:58:58;;;;;;;6.20;5.07;;;0.80;99.90;;;;;;5029002;28;20486;-61
2023/11/22 07:01:26;;;;;;;6.13;5.20;;;0.90;99.90;;;;;;5034904;28;20562;-61
2023/11/22 07:03:54;;;;;;;6.10;4.83;;;0.90;99.90;;;;;;5028061;28;20482;-61
2023/11/22 07:06:23;;;;;;;5.40;4.90;;;0.90;99.90;;;;;;5023391;28;20494;-61
2023/11/22 07:08:51;;;;;;;6.00;5.00;;;1.00;99.90;;;;;;5035369;28;20951;-60
2023/11/22 07:11:25;;;;;;;5.67;4.53;;;1.00;99.90;;;;;;5032391;28;20503;-61
2023/11/22 07:13:54;;;;;;;5.47;4.97;;;1.00;99.90;;;;;;5031252;28;20497;-60
2023/11/22 07:16:24;;;;;;;6.83;5.83;;;1.10;99.90;;;;;;5027401;28;20467;-61
2023/11/22 07:18:52;;;;;;;6.30;5.23;;;1.10;99.90;;;;;;5031535;28;20500;-61
2023/11/22 07:21:21;;;;;;;6.47;5.77;;;1.20;99.90;;;;;;5033785;28;20929;-60
2023/11/22 07:23:50;;;;;;;7.43;5.50;;;1.20;99.90;;;;;;5031039;28;20594;-61
2023/11/22 07:26:20;;;;;;;7.10;5.27;;;1.20;99.90;;;;;;5036154;28;20471;-60
2023/11/22 07:28:48;;;;;;;17.10;7.70;;;1.20;99.90;;;;;;5034301;28;21056;-61
2023/11/22 07:31:16;;;;;;;42.13;11.43;;;1.30;99.90;;;;;;5034920;28;20484;-61
2023/11/22 07:33:46;;;;;;;23.73;9.00;;;1.30;99.90;;;;;;5026572;28;20474;-60
2023/11/22 07:36:15;;;;;;;27.67;10.00;;;1.30;99.90;;;;;;5035565;28;22561;-61
2023/11/22 07:38:43;;;;;;;39.57;10.30;;;1.40;99.90;;;;;;5032444;28;20948;-60
2023/11/22 07:41:11;;;;;;;20.30;8.07;;;1.40;99.90;;;;;;5033746;28;20566;-61
2023/11/22 07:43:39;;;;;;;18.47;9.40;;;1.40;99.90;;;;;;5030288;28;20467;-61
2023/11/22 07:46:12;;;;;;;18.90;7.50;;;1.40;99.90;;;;;;5027606;28;20482;-61
2023/11/22 07:48:41;;;;;;;19.70;8.40;;;1.40;99.90;;;;;;5032623;28;20485;-61
2023/11/22 07:51:11;;;;;;;18.13;7.30;;;1.40;99.90;;;;;;5032885;28;20503;-61
2023/11/22 07:53:40;;;;;;;14.63;7.50;;;1.40;99.90;;;;;;5030566;28;20483;-61
2023/11/22 07:56:09;;;;;;;14.07;7.47;;;1.50;99.90;;;;;;5028983;28;20943;-61
2023/11/22 07:58:37;;;;;;;8.80;6.70;;;1.40;99.90;;;;;;5031248;28;20485;-61
2023/11/22 08:01:12;;;;;;;11.43;6.40;;;1.50;99.90;;;;;;5032184;28;20644;-61
2023/11/22 08:03:45;;;;;;;14.50;7.10;;;1.50;99.90;;;;;;5027432;28;20579;-60
2023/11/22 08:06:17;;;;;;;10.40;6.00;;;1.50;99.90;;;;;;5035085;28;20469;-60
2023/11/22 08:08:45;;;;;;;10.60;6.97;;;1.50;99.90;;;;;;5036363;28;20482;-61
2023/11/22 08:11:15;;;;;;;9.90;6.70;;;1.50;99.90;;;;;;5035106;28;20498;-60
2023/11/22 08:13:44;;;;;;;9.13;6.20;;;1.60;99.90;;;;;;5029940;28;20576;-61
2023/11/22 08:16:13;;;;;;;11.67;6.70;;;1.60;99.90;;;;;;5029988;28;20499;-61
2023/11/22 08:18:42;;;;;;;11.30;6.47;;;1.60;99.90;;;;;;5032791;28;20482;-61
2023/11/22 08:21:11;;;;;;;12.70;7.97;;;1.70;99.90;;;;;;5033470;28;20482;-60
2023/11/22 08:23:41;;;;;;;32.73;9.53;;;1.70;99.90;;;;;;5032971;28;20608;-61
2023/11/22 08:26:09;;;;;;;28.73;9.20;;;1.70;99.90;;;;;;5033566;28;20470;-61
2023/11/22 08:28:37;;;;;;;14.90;8.10;;;1.70;99.90;;;;;;5032277;28;20478;-61
2023/11/22 08:31:09;;;;;;;16.43;9.17;;;1.80;99.90;;;;;;5029905;28;20547;-61
2023/11/22 08:33:37;;;;;;;29.97;9.83;;;1.80;99.90;;;;;;5029280;28;21158;-61
2023/11/22 08:36:06;;;;;;;26.87;10.17;;;1.90;99.90;;;;;;5033525;28;20475;-61
2023/11/22 08:38:34;;;;;;;30.13;9.70;;;1.90;99.90;;;;;;5030340;28;20470;-61
2023/11/22 08:41:05;;;;;;;21.63;9.60;;;2.00;99.90;;;;;;5032577;28;21094;-61
2023/11/22 08:43:33;;;;;;;14.37;8.10;;;2.00;99.90;;;;;;5032733;28;20479;-60
2023/11/22 08:46:04;;;;;;;15.73;8.20;;;2.00;99.90;;;;;;5027843;28;20566;-61
2023/11/22 08:48:42;;;;;;;18.37;8.67;;;2.00;99.90;;;;;;5030347;28;20988;-61
2023/11/22 08:51:11;;;;;;;15.13;7.90;;;2.10;99.90;;;;;;5033351;28;20477;-61
2023/11/22 08:53:39;;;;;;;15.23;9.13;;;2.10;99.90;;;;;;5029715;28;20556;-61
2023/11/22 08:56:09;;;;;;;13.40;7.43;;;2.10;99.90;;;;;;5027866;28;20531;-60
2023/11/22 08:58:38;;;;;;;8.80;6.93;;;2.20;99.90;;;;;;5036500;28;20467;-61
2023/11/22 09:01:07;;;;;;;9.70;6.90;;;2.30;99.90;;;;;;5027569;28;20835;-60
2023/11/22 09:03:36;;;;;;;11.50;7.80;;;2.30;99.90;;;;;;5028437;28;21086;-60
2023/11/22 09:06:06;;;;;;;10.80;7.80;;;2.40;99.90;;;;;;5031972;28;20474;-61
2023/11/22 09:08:35;;;;;;;10.87;7.20;;;2.50;99.90;;;;;;5029323;28;20482;-61
2023/11/22 09:11:06;;;;;;;8.57;7.40;;;2.60;99.90;;;;;;5030475;28;20482;-61
2023/11/22 09:13:35;;;;;;;6.43;5.83;;;2.60;99.90;;;;;;5029524;28;20593;-60
2023/11/22 09:16:04;;;;;;;10.97;6.20;;;2.70;99.90;;;;;;5027505;28;20474;-61
2023/11/22 09:18:33;;;;;;;7.07;5.73;;;2.80;99.90;;;;;;5030461;28;20475;-61
2023/11/22 09:21:01;;;;;;;8.47;6.20;;;2.90;99.90;;;;;;5035430;28;20576;-60
2023/11/22 09:23:29;;;;;;;9.40;6.43;;;2.90;99.90;;;;;;5030472;28;20524;-60
2023/11/22 09:25:57;;;;;;;7.67;5.77;;;3.00;99.90;;;;;;5029228;28;20466;-60
2023/11/22 09:28:25;;;;;;;8.83;5.50;;;3.00;99.90;;;;;;5028045;28;20553;-61
2023/11/22 09:31:01;;;;;;;8.27;6.00;;;3.00;99.90;;;;;;5026431;28;20469;-61
2023/11/22 09:33:29;;;;;;;7.27;5.53;;;3.10;99.90;;;;;;5029069;28;20493;-61
2023/11/22 09:35:58;;;;;;;7.40;5.53;;;3.20;99.90;;;;;;5033615;28;20999;-61
2023/11/22 09:38:26;;;;;;;6.73;5.33;;;3.20;99.90;;;;;;5025103;28;20474;-61
2023/11/22 09:40:54;;;;;;;10.10;4.93;;;3.20;99.90;;;;;;5030283;28;20475;-60
2023/11/22 09:43:23;;;;;;;5.60;4.60;;;3.30;99.90;;;;;;5034619;28;21098;-61
2023/11/22 09:45:54;;;;;;;6.50;5.00;;;3.30;99.90;;;;;;5032146;28;20470;-61
2023/11/22 09:48:27;;;;;;;5.67;4.47;;;3.40;99.90;;;;;;5032851;28;20533;-61
2023/11/22 09:51:04;;;;;;;4.40;4.00;;;3.40;99.90;;;;;;5033648;28;20629;-61
2023/11/22 09:53:34;;;;;;;5.30;4.10;;;3.50;99.90;;;;;;5024225;28;20556;-61
2023/11/22 09:56:04;;;;;;;4.43;4.00;;;3.50;99.90;;;;;;5033017;28;20542;-61
2023/11/22 09:58:34;;;;;;;5.80;3.80;;;3.50;99.90;;;;;;5032946;28;20482;-60
2023/11/22 10:01:02;;;;;;;7.57;4.20;;;3.60;99.90;;;;;;5020805;28;20543;-61
2023/11/22 10:03:32;;;;;;;4.57;3.40;;;3.60;99.90;;;;;;5026851;28;20519;-61
2023/11/22 10:06:00;;;;;;;6.23;4.20;;;3.60;99.90;;;;;;5031258;28;20467;-61
2023/11/22 10:08:29;;;;;;;7.77;5.00;;;3.70;99.90;;;;;;5032897;28;20551;-61
2023/11/22 10:10:59;;;;;;;8.90;3.93;;;3.70;99.90;;;;;;5030719;28;20470;-61
2023/11/22 10:13:27;;;;;;;6.40;4.07;;;3.70;99.90;;;;;;5029404;28;20973;-61
2023/11/22 10:15:55;;;;;;;7.10;4.40;;;3.70;99.90;;;;;;5030006;28;20466;-61
2023/11/22 10:18:24;;;;;;;5.20;4.60;;;3.80;99.90;;;;;;5026877;28;20518;-61
2023/11/22 10:20:54;;;;;;;6.00;4.40;;;3.80;99.90;;;;;;5033631;28;20517;-61
2023/11/22 10:23:24;;;;;;;5.87;4.60;;;3.80;99.90;;;;;;5028732;28;20493;-61
2023/11/22 10:25:54;;;;;;;5.63;4.23;;;3.90;99.90;;;;;;5031703;28;20492;-61
2023/11/22 10:28:24;;;;;;;5.30;4.30;;;3.90;99.90;;;;;;5030868;28;21034;-61
2023/11/22 10:30:53;;;;;;;4.80;3.93;;;4.00;99.90;;;;;;5029325;28;20474;-61
2023/11/22 10:33:23;;;;;;;6.43;4.87;;;4.00;99.90;;;;;;5019905;28;20525;-60
2023/11/22 10:35:53;;;;;;;6.73;4.33;;;4.00;99.90;;;;;;5025023;28;20459;-61
2023/11/22 10:38:22;;;;;;;6.60;4.67;;;4.10;99.90;;;;;;5021901;28;20485;-61
2023/11/22 10:40:51;;;;;;;6.53;5.10;;;4.10;99.90;;;;;;5027064;28;20474;-61
2023/11/22 10:43:23;;;;;;;6.00;4.67;;;4.20;99.90;;;;;;5021875;28;21195;-61
2023/11/22 10:45:53;;;;;;;4.47;4.07;;;4.20;99.90;;;;;;5029599;28;20494;-60
2023/11/22 10:48:21;;;;;;;5.10;4.20;;;4.30;99.90;;;;;;5022508;28;22282;-61
2023/11/22 10:50:50;;;;;;;7.33;4.30;;;4.30;99.90;;;;;;5030944;28;20565;-61
2023/11/22 10:53:25;;;;;;;5.23;4.50;;;4.30;99.90;;;;;;5031654;28;20913;-61
2023/11/22 10:55:59;;;;;;;7.47;4.97;;;4.40;99.90;;;;;;5030304;28;24084;-61
2023/11/22 10:58:32;;;;;;;6.80;4.70;;;4.40;99.90;;;;;;5032035;28;20926;-61
2023/11/22 11:01:01;;;;;;;6.77;4.60;;;4.40;99.90;;;;;;5032610;28;20468;-60
2023/11/22 11:03:38;;;;;;;6.57;5.07;;;4.50;99.90;;;;;;5029951;28;20490;-61
2023/11/22 11:06:13;;;;;;;12.03;5.27;;;4.50;99.90;;;;;;5033294;28;20483;-59
2023/11/22 11:08:45;;;;;;;5.53;4.73;;;4.60;99.90;;;;;;5038208;28;21207;-61
2023/11/22 11:11:15;;;;;;;6.40;4.83;;;4.50;99.90;;;;;;5035829;28;20894;-60
2023/11/22 11:13:43;;;;;;;8.67;4.97;;;4.60;99.90;;;;;;5033627;28;20482;-61
2023/11/22 11:16:12;;;;;;;5.10;4.33;;;4.60;99.90;;;;;;5033554;28;20578;-60
2023/11/22 11:18:40;;;;;;;6.63;4.43;;;4.70;99.90;;;;;;5031373;28;20839;-60
2023/11/22 11:21:11;;;;;;;6.43;5.20;;;4.70;99.90;;;;;;5038572;28;20733;-61
2023/11/22 11:23:44;;;;;;;5.43;4.53;;;4.70;99.90;;;;;;5035317;28;20968;-61
2023/11/22 11:26:17;;;;;;;9.97;4.97;;;4.80;99.90;;;;;;5031958;28;20499;-61
2023/11/22 11:28:47;;;;;;;7.00;5.00;;;4.80;99.90;;;;;;5035220;28;20996;-61
2023/11/22 11:31:16;;;;;;;7.20;5.10;;;4.90;99.90;;;;;;5034967;28;20971;-61
2023/11/22 11:33:58;;;;;;;6.03;4.23;;;5.00;99.90;;;;;;5032148;28;20594;-61
2023/11/22 11:36:29;;;;;;;6.13;4.53;;;5.00;99.90;;;;;;5028433;28;20466;-61
2023/11/22 11:39:00;;;;;;;8.40;4.97;;;5.10;99.90;;;;;;5031746;28;20482;-61
2023/11/22 11:41:32;;;;;;;5.03;4.47;;;5.20;99.90;;;;;;5027157;28;20555;-61
2023/11/22 11:44:03;;;;;;;6.10;4.53;;;5.10;99.90;;;;;;5031156;28;20505;-61
2023/11/22 11:46:32;;;;;;;6.13;4.73;;;5.20;99.90;;;;;;5031786;28;22065;-61
2023/11/22 11:49:04;;;;;;;5.23;4.57;;;5.20;99.90;;;;;;5036188;28;20462;-60
2023/11/22 11:51:31;;;;;;;8.03;4.10;;;5.20;99.90;;;;;;5035270;28;20470;-60
2023/11/22 11:54:01;;;;;;;5.07;4.10;;;5.30;99.90;;;;;;5033365;28;20487;-61
2023/11/22 11:56:29;;;;;;;7.50;5.23;;;5.30;99.90;;;;;;5035980;28;20474;-61
2023/11/22 11:58:59;;;;;;;4.77;3.97;;;5.30;99.90;;;;;;5035359;28;20532;-61
2023/11/22 12:01:29;;;;;;;5.23;4.17;;;5.30;99.90;;;;;;5029867;28;20541;-61
2023/11/22 12:03:57;;;;;;;3.97;3.57;;;5.30;99.90;;;;;;5030321;28;20934;-61
2023/11/22 12:06:26;;;;;;;8.87;4.20;;;5.30;99.90;;;;;;5033733;28;21530;-61
2023/11/22 12:08:54;;;;;;;3.93;3.53;;;5.40;99.90;;;;;;5037053;28;20909;-61
2023/11/22 12:11:23;;;;;;;4.13;3.43;;;5.30;99.90;;;;;;5031215;28;20467;-61
2023/11/22 12:13:52;;;;;;;5.23;3.60;;;5.30;99.90;;;;;;5027237;28;21793;-60
2023/11/22 12:16:20;;;;;;;3.90;3.30;;;5.20;99.90;;;;;;5030748;28;20463;-61
2023/11/22 12:18:51;;;;;;;4.07;3.00;;;5.20;99.90;;;;;;5027818;28;20495;-61
2023/11/22 12:21:20;;;;;;;5.10;3.10;;;5.20;99.90;;;;;;5026893;28;21035;-60
2023/11/22 12:23:49;;;;;;;3.10;2.80;;;5.20;99.90;;;;;;5029154;28;20485;-61
2023/11/22 12:26:18;;;;;;;4.13;2.83;;;5.20;99.90;;;;;;5026284;28;20580;-61
2023/11/22 12:28:49;;;;;;;4.10;3.23;;;5.20;99.90;;;;;;5029650;28;20466;-60
2023/11/22 12:31:34;;;;;;;2.87;2.50;;;5.20;99.90;;;;;;5026060;28;20479;-61
2023/11/22 12:34:05;;;;;;;2.47;2.27;;;5.20;99.90;;;;;;5030214;28;20526;-61
2023/11/22 12:36:35;;;;;;;3.93;2.30;;;5.20;99.90;;;;;;5035662;28;20542;-60
2023/11/22 12:39:03;;;;;;;1.50;1.40;;;5.10;99.90;;;;;;5032572;28;20477;-61
2023/11/22 12:41:32;;;;;;;3.10;2.27;;;5.10;99.90;;;;;;5026345;28;20474;-62
2023/11/22 12:44:06;;;;;;;1.67;1.57;;;5.10;99.90;;;;;;5033653;28;20479;-59
2023/11/22 12:46:48;;;;;;;2.20;1.57;;;5.00;99.90;;;;;;5031838;28;20490;-61
2023/11/22 12:49:18;;;;;;;1.80;1.57;;;5.00;99.90;;;;;;5031318;28;20551;-62
2023/11/22 12:51:48;;;;;;;1.40;1.27;;;5.00;99.90;;;;;;5025227;28;20471;-62
2023/11/22 12:54:16;;;;;;;1.63;1.53;;;5.00;99.90;;;;;;5029451;28;21118;-61
2023/11/22 12:56:45;;;;;;;1.57;1.47;;;5.00;99.90;;;;;;5030409;28;20477;-61
2023/11/22 12:59:14;;;;;;;1.70;1.60;;;4.90;99.90;;;;;;5028828;28;20487;-61
2023/11/22 13:01:42;;;;;;;2.30;1.67;;;4.90;99.90;;;;;;5032097;28;20462;-61
2023/11/22 13:04:11;;;;;;;2.13;1.20;;;4.90;99.90;;;;;;5027083;28;20583;-62
2023/11/22 13:06:39;;;;;;;1.80;1.50;;;4.90;99.90;;;;;;5028363;28;20495;-62